Terminal Aerodrome Forecast
Issued by NWS

Current Version | Previous Version | Text Only | Print | Product List | Glossary On
Versions: 1 2 3 4 5 6 7 8 9 10 11 12 13 14 15 16 17 18 19 20 21 22 23 24 25 26 27 28 29 30 31 32 33 34 35 36 37 38 39 40 41 42
000
FTAK31 PANC 211720
TAFAGK
TAF
PAGK 211720Z 2118/2218 34005KT P6SM OVC030
     FM212100 33004KT P6SM SCT030
     FM220800 17005KT P6SM OVC080
     FM221500 15008KT P6SM VCSH BKN035 OVC050=

USA.gov is the U.S. government's official web portal to all federal, state and local government web resources and services.